Terminal Aerodrome Forecast
Issued by NWS

Home | Current Version | Previous Version | Graphics & Text | Print | Product List | Glossary On
Versions: 1 2 3 4 5 6 7 8 9 10 11 12 13 14 15 16 17 18 19 20 21 22 23
207
FTUS43 KBIS 021628 AAA
TAFMOT
TAF AMD
KMOT 021628Z 0216/0312 17003KT P6SM -SN OVC015
     FM021800 20005KT P6SM OVC025
     FM030000 18004KT P6SM BKN035=

USA.gov is the U.S. government's official web portal to all federal, state and local government web resources and services.